createdAt,value
2023-01-11T00:01:41.078Z,3.50
2023-01-11T00:04:10.763Z,3.50
2023-01-11T00:06:38.950Z,3.50
2023-01-11T00:09:07.291Z,3.50
2023-01-11T00:11:35.608Z,3.60
2023-01-11T00:14:06.870Z,3.60
2023-01-11T00:16:35.017Z,3.50
2023-01-11T00:19:03.387Z,3.50
2023-01-11T00:21:33.175Z,3.50
2023-01-11T00:24:01.479Z,3.50
2023-01-11T00:26:29.728Z,3.40
2023-01-11T00:29:00.349Z,3.40
2023-01-11T00:31:28.757Z,3.40
2023-01-11T00:33:57.077Z,3.40
2023-01-11T00:36:25.311Z,3.30
2023-01-11T00:38:55.526Z,3.30
2023-01-11T00:41:42.246Z,3.30
2023-01-11T00:44:30.068Z,3.30
2023-01-11T00:47:16.425Z,3.30
2023-01-11T00:49:47.421Z,3.40
2023-01-11T00:52:16.151Z,3.40
2023-01-11T00:54:45.658Z,3.40
2023-01-11T00:57:14.070Z,3.40
2023-01-11T00:59:42.335Z,3.50
2023-01-11T01:02:11.527Z,3.50
2023-01-11T01:08:21.657Z,3.50
2023-01-11T01:10:54.043Z,3.50
2023-01-11T01:13:40.131Z,3.60
2023-01-11T01:16:09.218Z,3.60
2023-01-11T01:18:37.519Z,3.60
2023-01-11T01:24:55.375Z,3.80
2023-01-11T01:27:44.484Z,3.80
2023-01-11T01:30:18.189Z,3.90
2023-01-11T01:32:48.315Z,3.90
2023-01-11T01:35:16.560Z,3.90
2023-01-11T01:37:48.270Z,4.00
2023-01-11T01:40:18.510Z,4.00
2023-01-11T01:42:48.178Z,4.10
2023-01-11T01:45:35.614Z,4.10
2023-01-11T01:48:11.659Z,4.10
2023-01-11T01:50:49.203Z,4.00
2023-01-11T01:53:27.349Z,4.10
2023-01-11T01:56:01.488Z,4.10
2023-01-11T01:59:05.405Z,4.10
2023-01-11T02:01:59.786Z,4.10
2023-01-11T02:04:32.384Z,4.20
2023-01-11T02:07:09.851Z,4.20
2023-01-11T02:10:11.136Z,4.20
2023-01-11T02:13:09.062Z,4.20
2023-01-11T02:15:40.700Z,4.30
2023-01-11T02:19:02.197Z,4.30
2023-01-11T02:22:35.436Z,4.40
2023-01-11T02:26:13.582Z,4.40
2023-01-11T02:29:26.890Z,4.40
2023-01-11T02:35:46.782Z,4.40
2023-01-11T02:38:34.341Z,4.40
2023-01-11T02:41:57.109Z,4.40
2023-01-11T02:44:56.026Z,4.40
2023-01-11T02:47:33.217Z,4.40
2023-01-11T02:50:14.243Z,4.50
2023-01-11T02:52:55.611Z,4.50
2023-01-11T02:58:22.907Z,4.50
2023-01-11T03:01:04.514Z,4.50
2023-01-11T03:03:37.090Z,4.50
2023-01-11T03:06:08.163Z,4.50
2023-01-11T03:09:11.451Z,4.50
2023-01-11T03:12:10.630Z,4.50
2023-01-11T03:14:51.991Z,4.50
2023-01-11T03:17:37.923Z,4.50
2023-01-11T03:20:15.670Z,4.50
2023-01-11T03:22:54.470Z,4.50
2023-01-11T03:25:30.702Z,4.50
2023-01-11T03:28:08.361Z,4.50
2023-01-11T03:30:43.288Z,4.50
2023-01-11T03:33:18.962Z,4.50
2023-01-11T03:36:02.565Z,4.50
2023-01-11T03:38:37.758Z,4.60
2023-01-11T03:41:15.352Z,4.60
2023-01-11T03:43:47.744Z,4.60
2023-01-11T03:46:20.108Z,4.50
2023-01-11T03:48:54.042Z,4.60
2023-01-11T03:51:50.269Z,4.60
2023-01-11T03:54:48.560Z,4.60
2023-01-11T03:57:21.304Z,4.60
2023-01-11T03:59:51.192Z,4.60
2023-01-11T04:02:23.719Z,4.60
2023-01-11T04:04:55.093Z,4.60
2023-01-11T04:07:23.375Z,4.60
2023-01-11T04:14:24.643Z,4.60
2023-01-11T04:16:52.872Z,4.50
2023-01-11T04:19:21.309Z,4.60
2023-01-11T04:21:52.706Z,4.60
2023-01-11T04:24:25.333Z,4.60
2023-01-11T04:26:53.696Z,4.60
2023-01-11T04:29:21.965Z,4.60
2023-01-11T04:31:57.296Z,4.60
2023-01-11T04:34:25.729Z,4.60
2023-01-11T04:36:55.260Z,4.50
2023-01-11T04:39:23.867Z,4.60
2023-01-11T04:42:09.778Z,4.50
2023-01-11T04:45:12.274Z,4.60
2023-01-11T04:47:41.058Z,4.50
2023-01-11T04:50:11.897Z,4.50
2023-01-11T04:52:41.975Z,4.50
2023-01-11T04:55:12.604Z,4.60
2023-01-11T04:57:41.719Z,4.60
2023-01-11T05:00:11.686Z,4.60
2023-01-11T05:02:43.600Z,4.50
2023-01-11T05:05:14.155Z,4.50
2023-01-11T05:07:45.737Z,4.50
2023-01-11T05:10:16.867Z,4.50
2023-01-11T05:12:47.007Z,4.50
2023-01-11T05:15:15.376Z,4.40
2023-01-11T05:17:43.659Z,4.50
2023-01-11T05:20:12.836Z,4.50
2023-01-11T05:22:45.912Z,4.50
2023-01-11T05:25:14.039Z,4.40
2023-01-11T05:27:42.189Z,4.40
2023-01-11T05:30:12.013Z,4.40
2023-01-11T05:32:40.220Z,4.40
2023-01-11T05:35:11.225Z,4.40
2023-01-11T05:37:43.138Z,4.40
2023-01-11T05:40:13.771Z,4.40
2023-01-11T05:42:42.030Z,4.40
2023-01-11T05:45:28.449Z,4.40
2023-01-11T05:48:02.334Z,4.40
2023-01-11T05:50:31.530Z,4.40
2023-01-11T05:52:59.746Z,4.40
2023-01-11T05:55:32.918Z,4.40
2023-01-11T05:58:01.237Z,4.40
2023-01-11T06:00:29.515Z,4.30
2023-01-11T06:02:58.045Z,4.40
2023-01-11T06:05:26.990Z,4.40
2023-01-11T06:07:55.643Z,4.40
2023-01-11T06:10:48.327Z,4.40
2023-01-11T06:13:30.529Z,4.40
2023-01-11T06:16:03.428Z,4.40
2023-01-11T06:18:41.986Z,4.40
2023-01-11T06:21:15.015Z,4.40
2023-01-11T06:23:45.380Z,4.40
2023-01-11T06:26:20.915Z,4.40
2023-01-11T06:28:55.608Z,4.50
2023-01-11T06:31:28.299Z,4.40
2023-01-11T06:34:00.712Z,4.40
2023-01-11T06:36:30.032Z,4.40
2023-01-11T06:39:02.345Z,4.40
2023-01-11T06:41:31.002Z,4.40
2023-01-11T06:44:00.992Z,4.40
2023-01-11T06:46:35.061Z,4.50
2023-01-11T06:49:06.477Z,4.50
2023-01-11T06:51:35.261Z,4.40
2023-01-11T06:54:03.678Z,4.40
2023-01-11T06:56:31.802Z,4.40
2023-01-11T06:59:01.681Z,4.40
2023-01-11T07:01:30.823Z,4.40
2023-01-11T07:03:59.228Z,4.40
2023-01-11T07:06:29.205Z,4.40
2023-01-11T07:09:02.408Z,4.40
2023-01-11T07:11:35.547Z,4.40
2023-01-11T07:14:05.167Z,4.40
2023-01-11T07:16:33.507Z,4.40
2023-01-11T07:19:01.775Z,4.40
2023-01-11T07:21:30.043Z,4.40
2023-01-11T07:23:58.491Z,4.40
2023-01-11T07:26:28.239Z,4.40
2023-01-11T07:28:56.795Z,4.50
2023-01-11T07:31:26.435Z,4.50
2023-01-11T07:33:54.727Z,4.50
2023-01-11T07:36:23.013Z,4.50
2023-01-11T07:38:54.457Z,4.50
2023-01-11T07:41:40.011Z,4.50
2023-01-11T07:44:13.075Z,4.50
2023-01-11T07:46:42.854Z,4.50
2023-01-11T07:49:14.518Z,4.60
2023-01-11T07:51:42.632Z,4.50
2023-01-11T07:54:11.076Z,4.50
2023-01-11T07:56:39.282Z,4.60
2023-01-11T07:59:07.531Z,4.60
2023-01-11T08:01:35.823Z,4.60
2023-01-11T08:04:08.511Z,4.60
2023-01-11T08:09:49.576Z,4.60
2023-01-11T08:12:38.489Z,4.70
2023-01-11T08:15:10.272Z,4.70
2023-01-11T08:17:47.598Z,4.70
2023-01-11T08:20:22.103Z,4.70
2023-01-11T08:23:05.128Z,4.60
2023-01-11T08:25:34.969Z,4.60
2023-01-11T08:28:12.475Z,4.60
2023-01-11T08:30:40.866Z,4.50
2023-01-11T08:33:13.212Z,4.60
2023-01-11T08:35:43.196Z,4.60
2023-01-11T08:38:12.548Z,4.70
2023-01-11T08:40:45.337Z,4.70
2023-01-11T08:43:16.592Z,4.70
2023-01-11T08:45:44.732Z,4.70
2023-01-11T08:48:13.626Z,4.80
2023-01-11T08:50:46.492Z,4.90
2023-01-11T08:53:15.809Z,4.90
2023-01-11T08:55:44.790Z,4.90
2023-01-11T08:58:13.034Z,4.90
2023-01-11T09:00:46.419Z,4.90
2023-01-11T09:03:15.583Z,4.90
2023-01-11T09:05:46.793Z,4.90
2023-01-11T09:08:22.523Z,4.90
2023-01-11T09:10:50.787Z,4.90
2023-01-11T09:13:20.591Z,4.90
2023-01-11T09:15:50.106Z,4.90
2023-01-11T09:18:42.561Z,4.90
2023-01-11T09:21:12.148Z,4.90
2023-01-11T09:23:45.146Z,5.00
2023-01-11T09:26:25.288Z,5.00
2023-01-11T09:29:01.011Z,5.00
2023-01-11T09:31:32.952Z,5.00
2023-01-11T09:34:08.324Z,5.00
2023-01-11T09:36:40.257Z,5.00
2023-01-11T09:39:15.746Z,4.90
2023-01-11T09:42:07.331Z,4.90
2023-01-11T09:44:42.201Z,4.90
2023-01-11T09:47:16.830Z,4.90
2023-01-11T09:50:13.670Z,4.80
2023-01-11T09:53:12.859Z,4.80
2023-01-11T09:55:46.660Z,4.80
2023-01-11T09:58:46.828Z,4.70
2023-01-11T10:01:41.262Z,4.70
2023-01-11T10:04:37.224Z,4.70
2023-01-11T10:07:30.101Z,4.70
2023-01-11T10:18:26.164Z,4.70
2023-01-11T10:21:58.300Z,4.80
2023-01-11T10:24:30.102Z,4.80
2023-01-11T10:27:05.901Z,4.80
2023-01-11T10:29:53.113Z,4.80
2023-01-11T10:33:18.262Z,4.80
2023-01-11T10:36:10.668Z,4.90
2023-01-11T10:39:03.221Z,4.90
2023-01-11T10:44:44.441Z,5.00
2023-01-11T10:47:20.166Z,4.90
2023-01-11T10:49:58.110Z,4.90
2023-01-11T10:52:43.491Z,4.90
2023-01-11T10:55:17.798Z,5.00
2023-01-11T10:58:00.400Z,5.00
2023-01-11T11:00:37.987Z,5.00
2023-01-11T11:03:48.122Z,5.00
2023-01-11T11:06:25.071Z,5.00
2023-01-11T11:09:44.769Z,5.00
2023-01-11T11:12:19.462Z,5.00
2023-01-11T11:14:58.216Z,5.00
2023-01-11T11:17:34.307Z,5.00
2023-01-11T11:20:16.868Z,5.00
2023-01-11T11:22:46.701Z,5.00
2023-01-11T11:25:18.551Z,5.10
2023-01-11T11:27:54.673Z,5.10
2023-01-11T11:30:30.426Z,5.10
2023-01-11T11:33:06.351Z,5.20
2023-01-11T11:35:38.597Z,5.20
2023-01-11T11:38:23.671Z,5.20
2023-01-11T11:40:59.258Z,5.30
2023-01-11T11:43:29.592Z,5.30
2023-01-11T11:45:59.428Z,5.30
2023-01-11T11:48:31.261Z,5.30
2023-01-11T11:51:03.168Z,5.40
2023-01-11T11:53:43.081Z,5.40
2023-01-11T11:56:24.865Z,5.50
2023-01-11T11:58:58.972Z,5.50
2023-01-11T12:01:31.659Z,5.60
2023-01-11T12:04:19.255Z,5.70
2023-01-11T12:06:54.669Z,5.60
2023-01-11T12:09:29.694Z,5.60
2023-01-11T12:11:58.891Z,5.50
2023-01-11T12:14:29.488Z,5.50
2023-01-11T12:16:59.516Z,5.50
2023-01-11T12:19:35.501Z,5.40
2023-01-11T12:22:19.330Z,5.40
2023-01-11T12:24:51.191Z,5.40
2023-01-11T12:27:33.739Z,5.50
2023-01-11T12:30:15.982Z,5.40
2023-01-11T12:33:17.903Z,5.50
2023-01-11T12:35:57.396Z,5.50
2023-01-11T12:38:35.663Z,5.50
2023-01-11T12:41:53.775Z,5.40
2023-01-11T12:45:06.235Z,5.40
2023-01-11T12:48:01.943Z,5.40
2023-01-11T12:50:35.829Z,5.40
2023-01-11T12:53:47.037Z,5.30
2023-01-11T12:56:37.823Z,5.30
2023-01-11T12:59:26.678Z,5.30
2023-01-11T13:02:03.850Z,5.30
2023-01-11T13:04:48.511Z,5.30
2023-01-11T13:07:56.800Z,5.20
2023-01-11T13:10:59.282Z,5.20
2023-01-11T13:13:32.439Z,5.20
2023-01-11T13:16:14.541Z,5.20
2023-01-11T13:18:49.871Z,5.10
2023-01-11T13:21:31.300Z,5.10
2023-01-11T13:24:15.352Z,5.10
2023-01-11T13:26:50.917Z,5.10
2023-01-11T13:29:28.652Z,5.00
2023-01-11T13:32:01.918Z,5.00
2023-01-11T13:34:37.881Z,5.00
2023-01-11T13:37:13.290Z,4.90
2023-01-11T13:39:46.797Z,4.90
2023-01-11T13:42:22.785Z,4.80
2023-01-11T13:44:54.823Z,4.80
2023-01-11T13:47:30.700Z,4.90
2023-01-11T13:50:24.328Z,4.90
2023-01-11T13:53:04.063Z,4.80
2023-01-11T13:55:38.751Z,4.70
2023-01-11T13:58:15.244Z,4.70
2023-01-11T14:00:49.338Z,4.60
2023-01-11T14:03:26.087Z,4.50
2023-01-11T14:06:08.602Z,4.50
2023-01-11T14:09:04.615Z,4.50
2023-01-11T14:11:42.488Z,4.40
2023-01-11T14:14:29.843Z,4.30
2023-01-11T14:17:10.645Z,4.30
2023-01-11T14:19:46.564Z,4.30
2023-01-11T14:22:26.281Z,4.20
2023-01-11T14:25:00.481Z,4.20
2023-01-11T14:27:56.984Z,4.30
2023-01-11T14:30:57.566Z,4.20
2023-01-11T14:38:08.778Z,4.10
2023-01-11T14:41:12.340Z,4.10
2023-01-11T14:44:14.910Z,4.10
2023-01-11T14:47:17.668Z,4.00
2023-01-11T14:49:59.639Z,4.00
2023-01-11T14:52:39.546Z,4.00
2023-01-11T14:55:20.295Z,4.00
2023-01-11T14:58:06.317Z,4.00
2023-01-11T15:01:12.147Z,4.00
2023-01-11T15:03:57.904Z,4.00
2023-01-11T15:06:31.882Z,4.00
2023-01-11T15:09:01.316Z,4.00
2023-01-11T15:11:41.976Z,4.00
2023-01-11T15:14:34.679Z,4.00
2023-01-11T15:17:21.458Z,4.00
2023-01-11T15:19:53.368Z,4.00
2023-01-11T15:22:30.889Z,4.10
2023-01-11T15:25:06.033Z,4.10
2023-01-11T15:27:38.018Z,4.10
2023-01-11T15:30:30.310Z,4.10
2023-01-11T15:33:29.589Z,4.10
2023-01-11T15:36:08.687Z,4.20
2023-01-11T15:38:42.504Z,4.20
2023-01-11T15:41:34.472Z,4.20
2023-01-11T15:44:19.106Z,4.20
2023-01-11T15:47:17.739Z,4.20
2023-01-11T15:50:16.757Z,4.30
2023-01-11T15:53:21.942Z,4.30
2023-01-11T15:56:19.214Z,4.30
2023-01-11T15:59:13.420Z,4.30
2023-01-11T16:01:55.908Z,4.30
2023-01-11T16:04:31.796Z,4.40
2023-01-11T16:07:22.389Z,4.30
2023-01-11T16:10:28.449Z,4.30
2023-01-11T16:13:09.963Z,4.40
2023-01-11T16:15:49.923Z,4.40
2023-01-11T16:18:23.453Z,4.40
2023-01-11T16:21:03.405Z,4.40
2023-01-11T16:23:34.554Z,4.40
2023-01-11T16:26:05.779Z,4.50
2023-01-11T16:28:34.150Z,4.50
2023-01-11T16:31:11.846Z,4.40
2023-01-11T16:33:40.095Z,4.50
2023-01-11T16:36:15.768Z,4.40
2023-01-11T16:38:50.907Z,4.50
2023-01-11T16:41:23.605Z,4.40
2023-01-11T16:44:04.169Z,4.50
2023-01-11T16:47:07.563Z,4.50
2023-01-11T16:49:36.175Z,4.50
2023-01-11T16:52:39.359Z,4.50
2023-01-11T16:55:29.647Z,4.60
2023-01-11T16:58:01.179Z,4.60
2023-01-11T17:00:43.551Z,4.60
2023-01-11T17:03:30.717Z,4.50
2023-01-11T17:06:28.363Z,4.60
2023-01-11T17:08:59.995Z,4.60
2023-01-11T17:11:36.214Z,4.60
2023-01-11T17:14:52.298Z,4.60
2023-01-11T17:17:21.845Z,4.80
2023-01-11T17:19:51.668Z,4.70
2023-01-11T17:22:23.733Z,4.70
2023-01-11T17:24:58.285Z,4.70
2023-01-11T17:27:31.815Z,4.80
2023-01-11T17:30:06.441Z,4.80
2023-01-11T17:32:45.467Z,4.80
2023-01-11T17:35:17.422Z,4.90
2023-01-11T17:37:46.931Z,4.90
2023-01-11T17:40:28.342Z,4.90
2023-01-11T17:43:20.694Z,4.90
2023-01-11T17:45:56.648Z,4.90
2023-01-11T17:48:27.290Z,4.90
2023-01-11T17:50:58.431Z,4.90
2023-01-11T17:53:28.635Z,5.00
2023-01-11T17:55:59.487Z,5.00
2023-01-11T17:58:30.068Z,5.00
2023-01-11T18:01:15.914Z,5.10
2023-01-11T18:03:50.296Z,5.00
2023-01-11T18:06:28.129Z,5.10
2023-01-11T18:08:57.736Z,5.10
2023-01-11T18:11:27.710Z,5.10
2023-01-11T18:14:00.268Z,5.10
2023-01-11T18:16:29.940Z,5.10
2023-01-11T18:19:00.964Z,5.10
2023-01-11T18:21:42.813Z,5.10
2023-01-11T18:24:30.595Z,5.10
2023-01-11T18:27:24.471Z,5.20
2023-01-11T18:29:57.641Z,5.10
2023-01-11T18:32:27.023Z,5.10
2023-01-11T18:34:56.324Z,5.10
2023-01-11T18:37:24.578Z,5.10
2023-01-11T18:39:54.042Z,5.10
2023-01-11T18:42:28.553Z,5.10
2023-01-11T18:44:58.248Z,5.10
2023-01-11T18:47:29.427Z,5.10
2023-01-11T18:49:59.449Z,5.00
2023-01-11T18:52:29.566Z,5.00
2023-01-11T18:54:58.396Z,5.00
2023-01-11T18:57:27.109Z,5.00
2023-01-11T18:59:55.745Z,5.00
2023-01-11T19:02:27.716Z,5.00
2023-01-11T19:04:57.307Z,5.00
2023-01-11T19:07:26.429Z,5.00
2023-01-11T19:09:55.899Z,5.00
2023-01-11T19:12:28.509Z,5.00
2023-01-11T19:14:56.772Z,5.00
2023-01-11T19:17:28.493Z,5.00
2023-01-11T19:19:56.792Z,5.00
2023-01-11T19:22:26.687Z,5.00
2023-01-11T19:24:58.310Z,5.00
2023-01-11T19:27:30.145Z,5.00
2023-01-11T19:29:58.705Z,5.00
2023-01-11T19:32:28.295Z,5.00
2023-01-11T19:34:58.124Z,5.00
2023-01-11T19:37:27.712Z,5.00
2023-01-11T19:39:55.863Z,5.00
2023-01-11T19:42:24.474Z,5.00
2023-01-11T19:44:52.673Z,5.00
2023-01-11T19:47:21.021Z,5.00
2023-01-11T19:49:50.701Z,5.00
2023-01-11T19:52:21.702Z,5.00
2023-01-11T19:54:49.932Z,5.00
2023-01-11T19:57:20.760Z,5.00
2023-01-11T19:59:50.067Z,5.00
2023-01-11T20:02:23.861Z,5.00
2023-01-11T20:04:53.489Z,5.10
2023-01-11T20:07:22.113Z,5.00
2023-01-11T20:09:53.845Z,5.00
2023-01-11T20:12:57.565Z,5.00
2023-01-11T20:15:28.661Z,5.00
2023-01-11T20:17:56.903Z,5.00
2023-01-11T20:20:26.495Z,5.00
2023-01-11T20:22:55.342Z,5.00
2023-01-11T20:25:23.625Z,5.00
2023-01-11T20:27:54.842Z,5.00
2023-01-11T20:30:23.298Z,5.00
2023-01-11T20:32:51.604Z,4.90
2023-01-11T20:35:22.513Z,4.90
2023-01-11T20:37:53.859Z,5.00
2023-01-11T20:40:22.670Z,5.00
2023-01-11T20:42:51.160Z,4.90
2023-01-11T20:45:19.640Z,4.90
2023-01-11T20:47:48.081Z,4.90
2023-01-11T20:50:17.719Z,4.90
2023-01-11T20:53:01.463Z,4.90
2023-01-11T20:55:33.590Z,4.90
2023-01-11T20:58:01.813Z,4.90
2023-01-11T21:00:33.643Z,4.80
2023-01-11T21:03:01.952Z,4.90
2023-01-11T21:05:30.246Z,4.90
2023-01-11T21:08:00.355Z,4.90
2023-01-11T21:10:28.843Z,4.90
2023-01-11T21:15:26.470Z,4.90
2023-01-11T21:17:56.609Z,4.90
2023-01-11T21:20:24.911Z,5.00
2023-01-11T21:22:54.704Z,5.00
2023-01-11T21:25:24.367Z,5.00
2023-01-11T21:27:56.053Z,5.00
2023-01-11T21:30:24.413Z,5.10
2023-01-11T21:32:57.307Z,5.10
2023-01-11T21:35:31.467Z,5.10
2023-01-11T21:37:59.832Z,5.10
2023-01-11T21:40:34.108Z,5.10
2023-01-11T21:43:02.495Z,5.10
2023-01-11T21:45:31.268Z,5.20
2023-01-11T21:47:59.564Z,5.20
2023-01-11T21:50:27.916Z,5.20
2023-01-11T21:53:07.293Z,5.20
2023-01-11T21:55:36.939Z,5.30
2023-01-11T21:58:05.333Z,5.30
2023-01-11T22:00:34.309Z,5.30
2023-01-11T22:03:02.785Z,5.30
2023-01-11T22:05:35.526Z,5.30
2023-01-11T22:08:04.005Z,5.30
2023-01-11T22:10:33.446Z,5.30
2023-01-11T22:13:06.032Z,5.40
2023-01-11T22:15:34.352Z,5.30
2023-01-11T22:18:04.512Z,5.40
2023-01-11T22:20:32.792Z,5.40
2023-01-11T22:23:01.022Z,5.40
2023-01-11T22:25:29.300Z,5.40
2023-01-11T22:27:57.848Z,5.40
2023-01-11T22:30:27.489Z,5.40
2023-01-11T22:33:00.718Z,5.40
2023-01-11T22:35:31.968Z,5.50
2023-01-11T22:38:01.389Z,5.50
2023-01-11T22:40:29.672Z,5.50
2023-01-11T22:42:59.314Z,5.50
2023-01-11T22:45:28.934Z,5.50
2023-01-11T22:48:00.451Z,5.50
2023-01-11T22:50:28.655Z,5.50
2023-01-11T22:56:34.984Z,5.50
2023-01-11T22:59:03.647Z,5.50
2023-01-11T23:01:34.941Z,5.50
2023-01-11T23:04:05.455Z,5.50
2023-01-11T23:06:35.263Z,5.50
2023-01-11T23:09:04.229Z,5.50
2023-01-11T23:11:55.683Z,5.50
2023-01-11T23:14:43.051Z,5.50
2023-01-11T23:17:12.694Z,5.50
2023-01-11T23:19:45.641Z,5.40
2023-01-11T23:22:17.893Z,5.40
2023-01-11T23:25:15.030Z,5.40
2023-01-11T23:27:43.953Z,5.40
2023-01-11T23:30:13.521Z,5.40
2023-01-11T23:32:47.370Z,5.40
2023-01-11T23:35:15.701Z,5.40
2023-01-11T23:37:43.969Z,5.30
2023-01-11T23:40:12.939Z,5.40
2023-01-11T23:42:40.360Z,5.40
2023-01-11T23:45:09.824Z,5.30
2023-01-11T23:47:39.251Z,5.40
2023-01-11T23:50:12.572Z,5.30
2023-01-11T23:52:47.611Z,5.30
2023-01-11T23:55:20.720Z,5.30
2023-01-11T23:58:09.019Z,5.20
